createdAt,value
2023-03-21T00:00:57.895Z,13.67
2023-03-21T00:03:28.673Z,12.73
2023-03-21T00:05:57.809Z,14.07
2023-03-21T00:08:28.095Z,11.87
2023-03-21T00:10:58.588Z,12.47
2023-03-21T00:13:32.463Z,14.10
2023-03-21T00:16:11.801Z,14.83
2023-03-21T00:18:48.682Z,14.93
2023-03-21T00:21:43.957Z,13.87
2023-03-21T00:24:08.963Z,18.73
2023-03-21T00:26:38.480Z,12.33
2023-03-21T00:29:08.951Z,14.10
2023-03-21T00:31:38.111Z,14.27
2023-03-21T00:34:07.233Z,14.10
2023-03-21T00:36:36.303Z,14.63
2023-03-21T00:39:09.579Z,14.43
2023-03-21T00:41:43.015Z,16.53
2023-03-21T00:44:15.687Z,15.40
2023-03-21T00:47:00.767Z,18.10
2023-03-21T00:49:38.452Z,13.57
2023-03-21T00:52:17.178Z,14.10
2023-03-21T00:54:53.843Z,15.37
2023-03-21T00:57:37.580Z,15.70
2023-03-21T01:00:12.014Z,16.23
2023-03-21T01:03:02.719Z,14.47
2023-03-21T01:05:58.232Z,20.13
2023-03-21T01:08:33.184Z,16.53
2023-03-21T01:11:14.656Z,18.03
2023-03-21T01:13:53.739Z,17.70
2023-03-21T01:16:28.479Z,18.43
2023-03-21T01:18:57.749Z,16.90
2023-03-21T01:21:27.639Z,19.27
2023-03-21T01:23:56.782Z,16.57
2023-03-21T01:26:26.394Z,18.10
2023-03-21T01:28:55.422Z,17.07
2023-03-21T01:31:24.586Z,19.33
2023-03-21T01:33:55.086Z,19.07
2023-03-21T01:36:26.487Z,19.93
2023-03-21T01:39:00.360Z,21.90
2023-03-21T01:41:46.969Z,20.93
2023-03-21T01:44:28.024Z,18.77
2023-03-21T01:47:13.401Z,19.17
2023-03-21T01:49:53.499Z,18.80
2023-03-21T01:52:43.348Z,21.53
2023-03-21T01:55:20.114Z,19.27
2023-03-21T01:58:14.092Z,21.07
2023-03-21T02:01:06.605Z,22.63
2023-03-21T02:03:51.288Z,23.53
2023-03-21T02:06:37.352Z,22.73
2023-03-21T02:09:23.270Z,21.97
2023-03-21T02:11:53.042Z,25.40
2023-03-21T02:14:28.940Z,28.13
2023-03-21T02:17:15.694Z,22.40
2023-03-21T02:20:21.975Z,20.97
2023-03-21T02:23:23.034Z,23.83
2023-03-21T02:26:33.363Z,24.27
2023-03-21T02:29:27.081Z,26.60
2023-03-21T02:32:20.304Z,23.53
2023-03-21T02:35:14.882Z,23.43
2023-03-21T02:37:55.208Z,25.03
2023-03-21T02:40:35.509Z,29.87
2023-03-21T02:43:22.160Z,22.73
2023-03-21T02:45:55.688Z,25.13
2023-03-21T02:48:44.390Z,24.63
2023-03-21T02:51:23.065Z,24.07
2023-03-21T02:54:24.534Z,27.40
2023-03-21T02:56:51.540Z,26.87
2023-03-21T02:59:23.798Z,24.20
2023-03-21T03:01:53.814Z,25.80
2023-03-21T03:04:24.782Z,27.33
2023-03-21T03:07:14.289Z,26.73
2023-03-21T03:10:09.308Z,25.70
2023-03-21T03:12:46.608Z,25.23
2023-03-21T03:15:28.294Z,23.87
2023-03-21T03:18:07.556Z,24.57
2023-03-21T03:20:49.832Z,26.70
2023-03-21T03:23:31.003Z,23.53
2023-03-21T03:26:06.481Z,26.97
2023-03-21T03:28:39.984Z,28.47
2023-03-21T03:31:21.873Z,26.93
2023-03-21T03:33:59.377Z,26.90
2023-03-21T03:36:36.893Z,26.00
2023-03-21T03:39:13.271Z,25.13
2023-03-21T03:44:43.470Z,29.37
2023-03-21T03:47:31.435Z,26.47
2023-03-21T03:50:09.867Z,28.27
2023-03-21T03:52:53.625Z,27.43
2023-03-21T03:55:28.126Z,29.30
2023-03-21T03:58:04.759Z,31.10
2023-03-21T04:00:36.314Z,35.40
2023-03-21T04:03:07.275Z,31.43
2023-03-21T04:05:36.529Z,31.00
2023-03-21T04:08:06.518Z,29.70
2023-03-21T04:10:42.026Z,30.03
2023-03-21T04:13:13.520Z,31.40
2023-03-21T04:16:03.018Z,29.63
2023-03-21T04:18:32.524Z,25.73
2023-03-21T04:21:02.008Z,33.33
2023-03-21T04:23:33.181Z,31.60
2023-03-21T04:26:02.228Z,30.30
2023-03-21T04:28:39.797Z,27.73
2023-03-21T04:31:30.965Z,27.27
2023-03-21T04:34:09.764Z,27.47
2023-03-21T04:36:42.944Z,32.50
2023-03-21T04:39:14.128Z,29.13
2023-03-21T04:41:47.096Z,33.17
2023-03-21T04:44:18.817Z,33.83
2023-03-21T04:46:48.772Z,32.20
2023-03-21T04:49:18.906Z,30.83
2023-03-21T04:51:47.959Z,32.53
2023-03-21T04:54:21.508Z,35.87
2023-03-21T04:56:51.936Z,37.57
2023-03-21T04:59:22.405Z,39.37
2023-03-21T05:01:52.263Z,39.57
2023-03-21T05:04:21.682Z,40.47
2023-03-21T05:06:50.795Z,39.13
2023-03-21T05:09:20.086Z,44.53
2023-03-21T05:11:49.523Z,41.10
2023-03-21T05:14:23.890Z,42.67
2023-03-21T05:16:56.131Z,39.83
2023-03-21T05:19:35.086Z,44.17
2023-03-21T05:22:08.202Z,36.33
2023-03-21T05:24:39.742Z,42.13
2023-03-21T05:27:14.221Z,42.23
2023-03-21T05:29:49.309Z,38.57
2023-03-21T05:32:18.683Z,42.63
2023-03-21T05:34:47.812Z,42.97
2023-03-21T05:37:16.968Z,38.17
2023-03-21T05:39:50.038Z,40.93
2023-03-21T05:42:25.854Z,41.33
2023-03-21T05:44:56.806Z,42.57
2023-03-21T05:47:31.219Z,42.17
2023-03-21T05:50:02.375Z,39.83
2023-03-21T05:52:32.426Z,39.60
2023-03-21T05:55:03.407Z,43.10
2023-03-21T05:57:39.062Z,41.93
2023-03-21T06:00:13.717Z,39.33
2023-03-21T06:02:46.198Z,44.80
2023-03-21T06:05:47.554Z,42.97
2023-03-21T06:08:22.841Z,41.00
2023-03-21T06:10:52.664Z,41.53
2023-03-21T06:13:21.968Z,38.60
2023-03-21T06:15:52.611Z,44.23
2023-03-21T06:18:25.974Z,49.03
2023-03-21T06:21:05.735Z,44.57
2023-03-21T06:23:34.866Z,40.57
2023-03-21T06:26:04.146Z,44.40
2023-03-21T06:28:33.399Z,38.97
2023-03-21T06:31:04.132Z,44.93
2023-03-21T06:33:35.719Z,48.73
2023-03-21T06:36:05.112Z,43.17
2023-03-21T06:38:37.846Z,40.80
2023-03-21T06:41:08.709Z,43.30
2023-03-21T06:43:43.607Z,46.17
2023-03-21T06:46:14.363Z,44.13
2023-03-21T06:48:45.321Z,43.30
2023-03-21T06:51:15.593Z,44.10
2023-03-21T06:53:56.973Z,44.93
2023-03-21T06:56:42.577Z,49.33
2023-03-21T06:59:14.495Z,48.43
2023-03-21T07:01:57.768Z,42.77
2023-03-21T07:04:28.209Z,41.80
2023-03-21T07:06:59.672Z,43.20
2023-03-21T07:09:30.044Z,44.83
2023-03-21T07:12:04.889Z,45.10
2023-03-21T07:14:51.965Z,44.37
2023-03-21T07:17:22.403Z,44.63
2023-03-21T07:19:52.017Z,39.10
2023-03-21T07:22:22.100Z,53.37
2023-03-21T07:25:03.980Z,44.87
2023-03-21T07:27:35.927Z,63.57
2023-03-21T07:30:05.827Z,53.23
2023-03-21T07:32:37.889Z,53.43
2023-03-21T07:35:08.900Z,59.60
2023-03-21T07:37:38.347Z,48.50
2023-03-21T07:40:10.773Z,56.70
2023-03-21T07:42:42.192Z,63.67
2023-03-21T07:45:16.440Z,52.47
2023-03-21T07:47:49.015Z,58.13
2023-03-21T07:50:18.797Z,62.17
2023-03-21T07:52:48.175Z,67.77
2023-03-21T07:55:18.658Z,52.60
2023-03-21T07:57:51.539Z,48.30
2023-03-21T08:00:23.685Z,61.37
2023-03-21T08:02:58.533Z,56.03
2023-03-21T08:05:29.873Z,59.17
2023-03-21T08:07:59.088Z,53.60
2023-03-21T08:10:29.146Z,58.90
2023-03-21T08:12:58.438Z,55.37
2023-03-21T08:15:27.622Z,52.70
2023-03-21T08:18:00.299Z,62.70
2023-03-21T08:20:29.753Z,56.87
2023-03-21T08:22:59.140Z,58.53
2023-03-21T08:25:28.283Z,62.20
2023-03-21T08:27:57.377Z,59.60
2023-03-21T08:30:29.569Z,57.47
2023-03-21T08:33:01.880Z,61.87
2023-03-21T08:35:32.524Z,59.73
2023-03-21T08:38:03.215Z,51.00
2023-03-21T08:40:32.586Z,61.73
2023-03-21T08:43:01.938Z,54.77
2023-03-21T08:45:31.145Z,50.70
2023-03-21T08:48:01.611Z,46.77
2023-03-21T08:50:31.754Z,50.37
2023-03-21T08:53:00.813Z,41.83
2023-03-21T08:55:30.398Z,44.80
2023-03-21T08:57:59.513Z,51.80
2023-03-21T09:00:28.876Z,47.07
2023-03-21T09:02:59.772Z,38.57
2023-03-21T09:05:28.862Z,43.40
2023-03-21T09:07:58.178Z,43.00
2023-03-21T09:10:27.211Z,37.13
2023-03-21T09:12:57.107Z,37.67
2023-03-21T09:15:29.793Z,32.70
2023-03-21T09:18:12.971Z,34.27
2023-03-21T09:20:43.066Z,34.77
2023-03-21T09:23:13.388Z,38.97
2023-03-21T09:25:42.982Z,36.07
2023-03-21T09:28:13.102Z,31.80
2023-03-21T09:30:42.182Z,32.80
2023-03-21T09:33:13.145Z,35.20
2023-03-21T09:35:42.738Z,39.00
2023-03-21T09:38:11.875Z,33.93
2023-03-21T09:41:00.903Z,39.93
2023-03-21T09:43:43.790Z,33.30
2023-03-21T09:46:20.529Z,41.40
2023-03-21T09:48:58.573Z,36.33
2023-03-21T09:51:32.667Z,48.90
2023-03-21T09:54:07.409Z,35.40
2023-03-21T09:56:38.479Z,43.73
2023-03-21T09:59:11.511Z,36.33
2023-03-21T10:01:45.469Z,35.80
2023-03-21T10:04:18.859Z,40.17
2023-03-21T10:06:57.171Z,38.27
2023-03-21T10:09:28.178Z,37.70
2023-03-21T10:12:03.061Z,43.23
2023-03-21T10:14:36.354Z,36.57
2023-03-21T10:17:22.991Z,34.33
2023-03-21T10:20:11.611Z,35.53
2023-03-21T10:22:41.449Z,35.87
2023-03-21T10:25:15.754Z,40.50
2023-03-21T10:27:45.273Z,35.67
2023-03-21T10:30:27.295Z,42.10
2023-03-21T10:32:59.682Z,31.93
2023-03-21T10:35:32.621Z,31.27
2023-03-21T10:38:02.317Z,33.63
2023-03-21T10:40:33.041Z,33.37
2023-03-21T10:43:20.102Z,28.30
2023-03-21T10:45:49.883Z,31.43
2023-03-21T10:48:19.300Z,29.03
2023-03-21T10:50:52.466Z,26.17
2023-03-21T10:53:24.403Z,25.87
2023-03-21T10:55:56.688Z,29.77
2023-03-21T10:58:30.224Z,23.00
2023-03-21T11:01:02.997Z,25.10
2023-03-21T11:03:34.861Z,22.20
2023-03-21T11:06:09.258Z,26.67
2023-03-21T11:08:44.994Z,27.20
2023-03-21T11:11:22.087Z,26.23
2023-03-21T11:14:01.107Z,24.97
2023-03-21T11:16:38.479Z,22.00
2023-03-21T11:19:17.632Z,23.73
2023-03-21T11:21:48.284Z,24.43
2023-03-21T11:24:19.981Z,27.37
2023-03-21T11:26:51.336Z,25.43
2023-03-21T11:29:30.249Z,23.30
2023-03-21T11:32:02.488Z,21.07
2023-03-21T11:34:39.953Z,24.97
2023-03-21T11:37:21.059Z,27.07
2023-03-21T11:39:55.311Z,22.47
2023-03-21T11:42:30.256Z,20.40
2023-03-21T11:45:03.286Z,22.77
2023-03-21T11:47:32.606Z,21.10
2023-03-21T11:50:05.369Z,21.53
2023-03-21T11:52:44.878Z,21.07
2023-03-21T11:55:37.195Z,21.37
2023-03-21T11:58:33.903Z,22.17
2023-03-21T12:01:14.158Z,21.23
2023-03-21T12:03:58.222Z,22.03
2023-03-21T12:06:33.925Z,20.10
2023-03-21T12:09:27.268Z,22.27
2023-03-21T12:12:06.005Z,20.33
2023-03-21T12:14:44.886Z,18.93
2023-03-21T12:17:25.942Z,21.57
2023-03-21T12:20:15.050Z,24.00
2023-03-21T12:22:57.998Z,21.80
2023-03-21T12:25:32.770Z,24.07
2023-03-21T12:28:15.254Z,29.00
2023-03-21T12:30:56.667Z,21.50
2023-03-21T12:33:42.106Z,26.53
2023-03-21T12:36:39.271Z,22.53
2023-03-21T12:39:20.594Z,27.23
2023-03-21T12:42:04.167Z,26.43
2023-03-21T12:44:36.974Z,23.33
2023-03-21T12:47:11.992Z,26.77
2023-03-21T12:49:46.823Z,23.67
2023-03-21T12:52:23.567Z,23.37
2023-03-21T12:54:57.711Z,23.43
2023-03-21T12:57:33.660Z,18.80
2023-03-21T13:00:10.691Z,20.47
2023-03-21T13:02:44.567Z,26.57
2023-03-21T13:05:21.332Z,25.20
2023-03-21T13:07:54.771Z,22.87
2023-03-21T13:10:24.273Z,18.77
2023-03-21T13:13:05.183Z,15.53
2023-03-21T13:16:00.699Z,16.27
2023-03-21T13:18:41.737Z,14.50
2023-03-21T13:21:17.700Z,15.03
2023-03-21T13:24:02.185Z,14.30
2023-03-21T13:26:37.878Z,13.40
2023-03-21T13:29:23.389Z,18.73
2023-03-21T13:31:57.320Z,13.07
2023-03-21T13:34:28.078Z,14.03
2023-03-21T13:36:59.037Z,11.50
2023-03-21T13:39:31.144Z,12.93
2023-03-21T13:42:06.496Z,14.33
2023-03-21T13:44:44.807Z,13.23
2023-03-21T13:47:32.644Z,15.33
2023-03-21T13:50:30.887Z,13.57
2023-03-21T13:53:33.546Z,14.63
2023-03-21T13:56:23.939Z,14.60
2023-03-21T13:59:00.730Z,16.70
2023-03-21T14:01:37.865Z,11.77
2023-03-21T14:04:16.720Z,13.77
2023-03-21T14:06:50.843Z,11.63
2023-03-21T14:09:26.681Z,13.73
2023-03-21T14:12:03.940Z,12.33
2023-03-21T14:14:41.114Z,14.13
2023-03-21T14:17:24.831Z,14.07
2023-03-21T14:19:55.510Z,18.90
2023-03-21T14:22:25.027Z,13.10
2023-03-21T14:24:58.496Z,11.67
2023-03-21T14:27:31.691Z,15.30
2023-03-21T14:30:02.094Z,11.90
2023-03-21T14:32:32.855Z,13.67
2023-03-21T14:35:02.786Z,12.37
2023-03-21T14:37:34.363Z,12.70
2023-03-21T14:40:18.002Z,11.50
2023-03-21T14:42:49.101Z,13.47
2023-03-21T14:45:21.064Z,13.10
2023-03-21T14:48:00.045Z,10.80
2023-03-21T14:50:37.227Z,10.00
2023-03-21T14:53:07.931Z,10.53
2023-03-21T14:55:45.301Z,11.77
2023-03-21T14:58:16.965Z,15.03
2023-03-21T15:00:48.978Z,14.27
2023-03-21T15:03:21.475Z,10.77
2023-03-21T15:05:50.773Z,12.43
2023-03-21T15:08:22.014Z,12.77
2023-03-21T15:11:06.880Z,10.90
2023-03-21T15:13:40.922Z,12.03
2023-03-21T15:16:12.377Z,13.10
2023-03-21T15:18:44.504Z,12.17
2023-03-21T15:21:18.455Z,14.77
2023-03-21T15:23:49.878Z,12.17
2023-03-21T15:26:22.115Z,10.60
2023-03-21T15:28:56.432Z,12.67
2023-03-21T15:31:29.746Z,11.87
2023-03-21T15:34:00.366Z,12.70
2023-03-21T15:36:36.405Z,12.53
2023-03-21T15:39:08.823Z,12.03
2023-03-21T15:41:38.036Z,10.93
2023-03-21T15:44:14.447Z,10.93
2023-03-21T15:46:48.240Z,9.60
2023-03-21T15:49:27.230Z,10.53
2023-03-21T15:52:02.202Z,9.93
2023-03-21T15:54:34.300Z,11.80
2023-03-21T15:57:09.422Z,11.67
2023-03-21T15:59:42.737Z,11.83
2023-03-21T16:02:20.154Z,12.83
2023-03-21T16:05:18.768Z,10.67
2023-03-21T16:07:48.643Z,10.93
2023-03-21T16:10:28.557Z,11.90
2023-03-21T16:12:57.707Z,13.77
2023-03-21T16:15:27.973Z,9.33
2023-03-21T16:18:00.552Z,11.80
2023-03-21T16:20:36.807Z,8.13
2023-03-21T16:23:06.300Z,10.60
2023-03-21T16:25:35.728Z,11.80
2023-03-21T16:28:05.000Z,15.73
2023-03-21T16:30:34.015Z,13.13
2023-03-21T16:33:03.420Z,10.03
2023-03-21T16:35:33.849Z,13.77
2023-03-21T16:38:03.323Z,11.33
2023-03-21T16:40:36.756Z,10.60
2023-03-21T16:43:06.551Z,11.30
2023-03-21T16:45:35.852Z,11.27
2023-03-21T16:48:05.252Z,10.60
2023-03-21T16:50:41.165Z,13.77
2023-03-21T16:53:10.471Z,11.27
2023-03-21T16:55:40.008Z,8.83
2023-03-21T16:58:09.142Z,9.53
2023-03-21T17:00:40.321Z,8.97
2023-03-21T17:03:18.857Z,11.57
2023-03-21T17:05:49.440Z,10.67
2023-03-21T17:08:20.832Z,11.17
2023-03-21T17:10:49.891Z,11.60
2023-03-21T17:13:18.908Z,13.20
2023-03-21T17:15:48.048Z,9.03
2023-03-21T17:18:17.059Z,10.50
2023-03-21T17:20:48.848Z,14.50
2023-03-21T17:23:17.880Z,10.63
2023-03-21T17:25:47.154Z,13.77
2023-03-21T17:28:16.571Z,11.93
2023-03-21T17:30:45.775Z,13.33
2023-03-21T17:33:15.654Z,21.57
2023-03-21T17:35:45.326Z,10.00
2023-03-21T17:38:18.240Z,13.67
2023-03-21T17:40:48.982Z,13.83
2023-03-21T17:43:20.877Z,9.63
2023-03-21T17:45:50.056Z,15.63
2023-03-21T17:48:19.165Z,11.93
2023-03-21T17:50:48.341Z,14.10
2023-03-21T17:53:18.692Z,14.80
2023-03-21T17:55:47.733Z,13.73
2023-03-21T17:58:17.708Z,12.30
2023-03-21T18:00:47.445Z,14.07
2023-03-21T18:03:18.516Z,12.53
2023-03-21T18:05:48.351Z,16.20
2023-03-21T18:08:18.817Z,15.37
2023-03-21T18:10:47.895Z,18.47
2023-03-21T18:13:17.032Z,18.07
2023-03-21T18:15:48.354Z,14.60
2023-03-21T18:18:18.102Z,14.97
2023-03-21T18:20:52.606Z,14.73
2023-03-21T18:23:24.373Z,14.20
2023-03-21T18:25:54.458Z,15.10
2023-03-21T18:28:23.594Z,16.80
2023-03-21T18:31:08.554Z,18.07
2023-03-21T18:33:40.365Z,19.00
2023-03-21T18:36:10.754Z,16.63
2023-03-21T18:38:41.206Z,16.47
2023-03-21T18:41:11.402Z,19.00
2023-03-21T18:46:30.433Z,18.30
2023-03-21T18:49:19.871Z,18.17
2023-03-21T18:51:48.551Z,24.50
2023-03-21T18:54:18.919Z,23.43
2023-03-21T18:57:33.800Z,26.57
2023-03-21T18:59:41.068Z,21.03
2023-03-21T19:02:12.209Z,23.67
2023-03-21T19:04:41.460Z,18.50
2023-03-21T19:07:11.059Z,24.13
2023-03-21T19:12:31.004Z,19.97
2023-03-21T19:15:00.042Z,22.63
2023-03-21T19:20:18.633Z,25.60
2023-03-21T19:22:47.730Z,18.10
2023-03-21T19:25:18.717Z,25.10
2023-03-21T19:27:47.763Z,23.07
2023-03-21T19:30:17.379Z,23.53
2023-03-21T19:32:47.051Z,22.40
2023-03-21T19:35:16.295Z,25.00
2023-03-21T19:37:46.531Z,23.00
2023-03-21T19:40:19.803Z,19.10
2023-03-21T19:42:48.976Z,23.10
2023-03-21T19:45:18.144Z,20.77
2023-03-21T19:47:47.299Z,22.93
2023-03-21T19:53:05.739Z,22.00
2023-03-21T19:55:36.408Z,22.53
2023-03-21T19:58:06.021Z,25.00
2023-03-21T20:00:35.735Z,25.43
2023-03-21T20:03:08.487Z,19.27
2023-03-21T20:05:37.674Z,23.50
2023-03-21T20:08:10.707Z,22.93
2023-03-21T20:10:41.577Z,22.43
2023-03-21T20:13:10.634Z,22.07
2023-03-21T20:15:47.677Z,27.97
2023-03-21T20:18:17.144Z,25.10
2023-03-21T20:20:46.355Z,20.47
2023-03-21T20:23:16.148Z,24.70
2023-03-21T20:25:48.076Z,24.97
2023-03-21T20:28:25.095Z,28.27
2023-03-21T20:30:59.356Z,18.77
2023-03-21T20:33:29.022Z,24.03
2023-03-21T20:38:49.458Z,23.07
2023-03-21T20:41:20.736Z,24.87
2023-03-21T20:46:39.079Z,21.23
2023-03-21T20:49:08.163Z,22.33
2023-03-21T20:54:26.396Z,18.87
2023-03-21T20:56:58.068Z,25.63
2023-03-21T20:59:28.280Z,20.17
2023-03-21T21:01:59.060Z,20.67
2023-03-21T21:04:48.112Z,21.00
2023-03-21T21:07:21.808Z,20.80
2023-03-21T21:09:51.565Z,17.70
2023-03-21T21:12:27.353Z,17.80
2023-03-21T21:14:56.541Z,16.93
2023-03-21T21:18:03.987Z,19.87
2023-03-21T21:20:17.407Z,18.77
2023-03-21T21:22:59.065Z,13.87
2023-03-21T21:25:32.180Z,20.33
2023-03-21T21:28:03.048Z,18.13
2023-03-21T21:30:34.280Z,19.00
2023-03-21T21:33:03.382Z,15.13
2023-03-21T21:35:33.440Z,16.37
2023-03-21T21:38:02.539Z,15.97
2023-03-21T21:40:31.701Z,21.47
2023-03-21T21:43:03.656Z,15.10
2023-03-21T21:45:32.920Z,19.20
2023-03-21T21:48:02.182Z,15.90
2023-03-21T21:50:31.220Z,17.23
2023-03-21T21:53:03.912Z,18.87
2023-03-21T21:55:33.681Z,22.30
2023-03-21T21:58:05.570Z,16.87
2023-03-21T22:00:35.454Z,20.23
2023-03-21T22:03:04.622Z,16.07
2023-03-21T22:05:33.995Z,15.57
2023-03-21T22:08:03.287Z,14.47
2023-03-21T22:10:35.638Z,21.03
2023-03-21T22:13:06.356Z,17.77
2023-03-21T22:15:35.494Z,22.73
2023-03-21T22:18:04.684Z,16.73
2023-03-21T22:20:34.655Z,15.90
2023-03-21T22:23:03.693Z,15.77
2023-03-21T22:25:34.059Z,18.47
2023-03-21T22:28:03.113Z,21.93
2023-03-21T22:30:33.741Z,18.60
2023-03-21T22:33:09.619Z,16.30
2023-03-21T22:35:39.008Z,15.73
2023-03-21T22:38:08.085Z,17.47
2023-03-21T22:40:37.510Z,18.57
2023-03-21T22:43:08.277Z,20.23
2023-03-21T22:45:38.735Z,23.33
2023-03-21T22:48:07.845Z,21.60
2023-03-21T22:50:36.912Z,19.50
2023-03-21T22:53:06.101Z,23.87
2023-03-21T22:55:35.226Z,19.27
2023-03-21T22:58:04.359Z,20.57
2023-03-21T23:00:34.611Z,15.47
2023-03-21T23:03:05.023Z,15.97
2023-03-21T23:05:34.209Z,18.23
2023-03-21T23:08:03.478Z,15.93
2023-03-21T23:10:32.578Z,18.93
2023-03-21T23:13:01.579Z,18.60
2023-03-21T23:15:30.621Z,18.40
2023-03-21T23:17:59.673Z,17.30
2023-03-21T23:20:30.200Z,22.27
2023-03-21T23:22:59.403Z,18.60
2023-03-21T23:25:30.287Z,15.47
2023-03-21T23:27:59.335Z,18.07
2023-03-21T23:30:28.384Z,18.87
2023-03-21T23:32:57.633Z,18.37
2023-03-21T23:35:26.740Z,16.63
2023-03-21T23:37:57.120Z,16.53
2023-03-21T23:40:26.191Z,14.43
2023-03-21T23:42:55.697Z,21.23
2023-03-21T23:45:24.731Z,16.33
2023-03-21T23:47:55.956Z,16.33
2023-03-21T23:50:27.512Z,12.10
2023-03-21T23:52:57.947Z,19.33
2023-03-21T23:55:26.974Z,13.97
2023-03-21T23:57:59.236Z,18.07
